createdAt,value
2019-04-28T00:00:45.700Z,14.18
2019-04-28T00:03:16.433Z,23.55
2019-04-28T00:05:46.962Z,23.40
2019-04-28T00:08:17.490Z,11.28
2019-04-28T00:10:47.608Z,10.63
2019-04-28T00:13:20.900Z,19.05
2019-04-28T00:15:51.604Z,33.70
2019-04-28T00:18:22.050Z,30.55
2019-04-28T00:21:12.661Z,36.73
2019-04-28T00:24:01.689Z,32.13
2019-04-28T00:26:40.960Z,28.67
2019-04-28T00:29:11.298Z,12.65
2019-04-28T00:31:41.604Z,23.45
2019-04-28T00:34:11.928Z,13.38
2019-04-28T00:36:43.481Z,11.93
2019-04-28T00:39:13.599Z,29.32
2019-04-28T00:41:43.923Z,15.05
2019-04-28T00:44:26.718Z,21.23
2019-04-28T00:46:56.847Z,22.27
2019-04-28T00:49:45.205Z,24.55
2019-04-28T00:52:16.758Z,7.65
2019-04-28T00:54:48.315Z,7.72
2019-04-28T00:57:21.038Z,6.72
2019-04-28T00:59:57.506Z,7.05
2019-04-28T01:02:25.207Z,6.53
2019-04-28T01:04:55.544Z,8.08
2019-04-28T01:07:26.183Z,6.78
2019-04-28T01:09:56.507Z,6.37
2019-04-28T01:12:27.334Z,6.33
2019-04-28T01:14:59.583Z,6.55
2019-04-28T01:17:36.788Z,6.53
2019-04-28T01:20:29.598Z,5.78
2019-04-28T01:23:00.784Z,6.10
2019-04-28T01:25:31.721Z,6.97
2019-04-28T01:28:02.455Z,6.45
2019-04-28T01:30:52.440Z,6.00
2019-04-28T01:33:24.700Z,6.22
2019-04-28T01:35:55.753Z,10.25
2019-04-28T01:38:26.074Z,7.50
2019-04-28T01:40:56.615Z,9.80
2019-04-28T01:43:27.335Z,8.35
2019-04-28T01:45:57.454Z,6.15
2019-04-28T01:48:29.666Z,9.38
2019-04-28T01:50:59.776Z,5.05
2019-04-28T01:53:30.808Z,4.70
2019-04-28T01:56:03.051Z,4.67
2019-04-28T01:58:33.377Z,4.53
2019-04-28T02:01:03.904Z,17.15
2019-04-28T02:03:34.227Z,27.07
2019-04-28T02:06:05.165Z,17.32
2019-04-28T02:08:35.489Z,14.33
2019-04-28T02:11:06.224Z,22.30
2019-04-28T02:13:36.750Z,27.13
2019-04-28T02:16:09.238Z,30.23
2019-04-28T02:18:39.882Z,23.18
2019-04-28T02:21:12.228Z,24.82
2019-04-28T02:23:42.552Z,29.20
2019-04-28T02:26:12.875Z,26.20
2019-04-28T02:28:43.198Z,7.42
2019-04-28T02:31:13.729Z,7.97
2019-04-28T02:33:44.255Z,9.90
2019-04-28T02:36:14.580Z,9.15
2019-04-28T02:38:44.904Z,15.35
2019-04-28T02:41:15.434Z,31.55
2019-04-28T02:43:57.624Z,22.25
2019-04-28T02:46:30.681Z,13.30
2019-04-28T02:49:00.952Z,12.85
2019-04-28T02:51:33.317Z,13.88
2019-04-28T02:54:03.643Z,11.35
2019-04-28T02:56:33.968Z,19.20
2019-04-28T02:59:04.288Z,22.25
2019-04-28T03:01:34.614Z,24.23
2019-04-28T03:04:04.936Z,12.63
2019-04-28T03:06:35.669Z,8.58
2019-04-28T03:09:10.358Z,5.40
2019-04-28T03:11:42.783Z,6.15
2019-04-28T03:14:11.955Z,11.75
2019-04-28T03:16:42.493Z,6.65
2019-04-28T03:19:12.816Z,17.37
2019-04-28T03:21:43.146Z,14.90
2019-04-28T03:24:13.761Z,7.87
2019-04-28T03:27:03.565Z,15.38
2019-04-28T03:29:40.356Z,36.93
2019-04-28T03:32:30.577Z,57.20
2019-04-28T03:34:53.228Z,42.80
2019-04-28T03:37:21.640Z,48.70
2019-04-28T03:39:52.472Z,21.68
2019-04-28T03:42:23.419Z,7.10
2019-04-28T03:44:54.559Z,20.82
2019-04-28T03:47:24.882Z,9.33
2019-04-28T03:49:55.204Z,15.90
2019-04-28T03:52:25.529Z,12.15
2019-04-28T03:54:55.852Z,23.30
2019-04-28T03:57:26.176Z,9.08
2019-04-28T03:59:57.523Z,27.22
2019-04-28T04:02:30.860Z,25.92
2019-04-28T04:05:00.794Z,27.45
2019-04-28T04:07:31.354Z,7.67
2019-04-28T04:10:06.396Z,6.28
2019-04-28T04:12:47.166Z,4.87
2019-04-28T04:15:41.294Z,4.55
2019-04-28T04:18:16.280Z,4.58
2019-04-28T04:20:46.599Z,4.45
2019-04-28T04:23:16.722Z,4.45
2019-04-28T04:25:47.664Z,5.17
2019-04-28T04:28:20.263Z,4.28
2019-04-28T04:30:50.824Z,4.30
2019-04-28T04:33:21.295Z,4.33
2019-04-28T04:35:51.907Z,4.22
2019-04-28T04:38:22.557Z,3.55
2019-04-28T04:40:52.881Z,4.22
2019-04-28T04:43:23.602Z,3.98
2019-04-28T04:45:55.780Z,3.90
2019-04-28T04:48:26.114Z,4.28
2019-04-28T04:50:56.633Z,3.77
2019-04-28T04:53:27.574Z,3.77
2019-04-28T04:56:00.356Z,4.20
2019-04-28T04:58:31.903Z,3.40
2019-04-28T05:01:06.734Z,3.20
2019-04-28T05:03:39.777Z,2.83
2019-04-28T05:06:29.695Z,2.60
2019-04-28T05:08:59.985Z,2.90
2019-04-28T05:11:30.557Z,2.40
2019-04-28T05:14:00.678Z,2.90
2019-04-28T05:16:31.000Z,3.00
2019-04-28T05:19:01.251Z,3.10
2019-04-28T05:21:34.311Z,3.02
2019-04-28T05:24:21.317Z,2.90
2019-04-28T05:26:51.955Z,2.80
2019-04-28T05:29:26.924Z,2.95
2019-04-28T05:31:54.831Z,3.30
2019-04-28T05:34:26.614Z,3.25
2019-04-28T05:36:56.937Z,3.90
2019-04-28T05:39:27.056Z,3.92
2019-04-28T05:41:57.587Z,3.27
2019-04-28T05:44:30.232Z,3.47
2019-04-28T05:47:00.696Z,2.50
2019-04-28T05:49:32.652Z,2.60
2019-04-28T05:52:04.614Z,3.92
2019-04-28T05:54:49.624Z,17.05
2019-04-28T05:57:21.647Z,23.42
2019-04-28T05:59:53.494Z,30.02
2019-04-28T06:02:25.872Z,31.87
2019-04-28T06:04:56.714Z,16.67
2019-04-28T06:07:44.855Z,25.75
2019-04-28T06:10:15.384Z,3.40
2019-04-28T06:12:45.504Z,2.75
2019-04-28T06:15:16.031Z,17.32
2019-04-28T06:17:46.354Z,17.60
2019-04-28T06:20:16.485Z,16.93
2019-04-28T06:22:47.209Z,15.95
2019-04-28T06:25:17.738Z,14.30
2019-04-28T06:27:48.059Z,12.63
2019-04-28T06:30:18.792Z,11.40
2019-04-28T06:32:48.912Z,11.63
2019-04-28T06:35:19.236Z,12.47
2019-04-28T06:37:49.559Z,14.60
2019-04-28T06:40:19.890Z,23.57
2019-04-28T06:42:50.616Z,28.45
2019-04-28T06:45:20.835Z,32.98
2019-04-28T06:47:52.084Z,20.10
2019-04-28T06:50:23.840Z,40.95
2019-04-28T06:52:55.804Z,49.83
2019-04-28T06:55:26.333Z,21.62
2019-04-28T06:57:57.065Z,35.15
2019-04-28T07:00:27.388Z,22.10
2019-04-28T07:02:57.917Z,30.77
2019-04-28T07:05:28.447Z,17.87
2019-04-28T07:07:58.769Z,16.25
2019-04-28T07:10:29.101Z,10.32
2019-04-28T07:12:59.623Z,8.08
2019-04-28T07:15:30.561Z,8.45
2019-04-28T07:18:00.886Z,9.88
2019-04-28T07:20:35.920Z,12.50
2019-04-28T07:23:06.242Z,21.95
2019-04-28T07:25:36.770Z,15.72
2019-04-28T07:28:07.096Z,24.37
2019-04-28T07:30:39.058Z,26.37
2019-04-28T07:33:09.714Z,14.65
2019-04-28T07:35:40.111Z,14.43
2019-04-28T07:38:10.439Z,20.72
2019-04-28T07:40:40.556Z,29.48
2019-04-28T07:43:10.883Z,17.35
2019-04-28T07:45:41.622Z,13.00
2019-04-28T07:48:12.142Z,8.90
2019-04-28T07:50:42.669Z,6.70
2019-04-28T07:53:14.429Z,6.87
2019-04-28T07:55:44.753Z,8.40
2019-04-28T07:58:15.485Z,7.37
2019-04-28T08:00:48.701Z,10.85
2019-04-28T08:03:17.771Z,12.68
2019-04-28T08:05:48.504Z,9.60
2019-04-28T08:08:18.828Z,9.33
2019-04-28T08:10:49.356Z,7.83
2019-04-28T08:13:20.089Z,7.05
2019-04-28T08:15:51.027Z,6.53
2019-04-28T08:18:21.556Z,5.30
2019-04-28T08:20:52.085Z,4.58
2019-04-28T08:23:22.408Z,4.08
2019-04-28T08:25:52.942Z,3.92
2019-04-28T08:28:23.260Z,5.08
2019-04-28T08:30:53.790Z,4.92
2019-04-28T08:33:40.703Z,9.85
2019-04-28T08:36:11.028Z,5.20
2019-04-28T08:38:41.350Z,9.55
2019-04-28T08:41:11.666Z,9.48
2019-04-28T08:43:42.001Z,2.58
2019-04-28T08:46:12.126Z,2.50
2019-04-28T08:48:42.637Z,2.50
2019-04-28T08:51:13.992Z,2.17
2019-04-28T08:53:44.521Z,2.00
2019-04-28T08:56:15.039Z,2.40
2019-04-28T08:58:45.172Z,2.80
2019-04-28T09:01:15.492Z,2.42
2019-04-28T09:03:45.819Z,2.35
2019-04-28T09:06:16.139Z,2.80
2019-04-28T09:08:46.464Z,2.50
2019-04-28T09:11:18.835Z,2.40
2019-04-28T09:13:49.364Z,2.50
2019-04-28T09:16:20.507Z,2.08
2019-04-28T09:18:51.035Z,2.20
2019-04-28T09:21:21.563Z,2.37
2019-04-28T09:23:51.877Z,2.33
2019-04-28T09:26:22.211Z,2.37
2019-04-28T09:28:52.727Z,2.80
2019-04-28T09:31:23.063Z,2.60
2019-04-28T09:33:53.387Z,2.67
2019-04-28T09:36:23.711Z,2.60
2019-04-28T09:38:54.229Z,2.37
2019-04-28T09:41:24.564Z,2.77
2019-04-28T09:44:02.261Z,2.70
2019-04-28T09:46:34.010Z,3.05
2019-04-28T09:49:04.956Z,3.05
2019-04-28T09:51:35.484Z,2.50
2019-04-28T09:54:06.423Z,2.47
2019-04-28T09:56:36.953Z,2.55
2019-04-28T09:59:07.494Z,3.05
2019-04-28T10:01:38.419Z,2.95
2019-04-28T10:04:08.947Z,2.60
2019-04-28T10:06:40.711Z,2.30
2019-04-28T10:09:11.786Z,3.12
2019-04-28T10:11:41.965Z,2.90
2019-04-28T10:14:12.292Z,5.05
2019-04-28T10:16:42.808Z,4.42
2019-04-28T10:19:13.141Z,3.90
2019-04-28T10:21:46.277Z,3.83
2019-04-28T10:24:17.067Z,4.80
2019-04-28T10:26:47.394Z,5.00
2019-04-28T10:29:17.605Z,4.87
2019-04-28T10:31:48.037Z,4.72
2019-04-28T10:34:18.149Z,8.18
2019-04-28T10:36:48.807Z,14.47
2019-04-28T10:39:29.792Z,10.43
2019-04-28T10:42:00.599Z,9.23
2019-04-28T10:44:32.559Z,6.40
2019-04-28T10:47:03.087Z,5.22
2019-04-28T10:49:35.049Z,5.85
2019-04-28T10:52:05.590Z,12.90
2019-04-28T10:54:36.340Z,10.25
2019-04-28T10:57:06.441Z,6.58
2019-04-28T10:59:36.494Z,4.85
2019-04-28T11:02:06.489Z,4.15
2019-04-28T11:04:40.977Z,4.50
2019-04-28T11:07:12.559Z,4.28
2019-04-28T11:09:47.212Z,4.08
2019-04-28T11:12:21.372Z,4.55
2019-04-28T11:14:51.471Z,5.28
2019-04-28T11:17:22.677Z,5.25
2019-04-28T11:19:52.724Z,5.50
2019-04-28T11:22:22.764Z,4.87
2019-04-28T11:24:52.795Z,5.03
2019-04-28T11:27:23.235Z,4.12
2019-04-28T11:29:53.182Z,4.05
2019-04-28T11:32:23.109Z,4.80
2019-04-28T11:34:57.593Z,5.28
2019-04-28T11:37:27.487Z,4.60
2019-04-28T11:39:57.920Z,4.58
2019-04-28T11:42:28.449Z,4.50
2019-04-28T11:44:59.596Z,4.10
2019-04-28T11:47:29.916Z,4.70
2019-04-28T11:50:06.402Z,4.03
2019-04-28T11:52:36.097Z,4.53
2019-04-28T11:55:07.238Z,4.58
2019-04-28T11:57:37.544Z,4.25
2019-04-28T12:00:10.341Z,3.98
2019-04-28T12:02:40.666Z,4.17
2019-04-28T12:05:11.605Z,4.90
2019-04-28T12:07:42.122Z,4.50
2019-04-28T12:10:30.070Z,3.80
2019-04-28T12:13:17.059Z,4.58
2019-04-28T12:16:06.147Z,4.10
2019-04-28T12:18:44.049Z,6.12
2019-04-28T12:21:14.375Z,4.22
2019-04-28T12:23:44.481Z,4.70
2019-04-28T12:26:14.816Z,4.78
2019-04-28T12:28:45.344Z,5.22
2019-04-28T12:31:15.667Z,4.75
2019-04-28T12:33:45.995Z,5.28
2019-04-28T12:36:16.523Z,5.80
2019-04-28T12:38:46.842Z,5.33
2019-04-28T12:41:17.576Z,4.87
2019-04-28T12:43:47.899Z,4.97
2019-04-28T12:46:18.025Z,4.97
2019-04-28T12:48:49.981Z,3.98
2019-04-28T12:51:20.100Z,3.77
2019-04-28T12:53:52.061Z,3.55
2019-04-28T12:56:22.385Z,4.37
2019-04-28T12:58:54.348Z,3.85
2019-04-28T13:01:35.529Z,3.70
2019-04-28T13:04:07.693Z,4.00
2019-04-28T13:06:38.222Z,4.15
2019-04-28T13:09:09.159Z,4.67
2019-04-28T13:11:39.687Z,4.00
2019-04-28T13:14:10.013Z,4.50
2019-04-28T13:16:40.539Z,4.62
2019-04-28T13:19:10.864Z,4.28
2019-04-28T13:21:41.393Z,4.58
2019-04-28T13:24:11.719Z,4.12
2019-04-28T13:26:41.851Z,4.55
2019-04-28T13:29:12.596Z,5.22
2019-04-28T13:31:42.893Z,4.28
2019-04-28T13:34:14.888Z,4.65
2019-04-28T13:36:45.391Z,4.15
2019-04-28T13:39:17.200Z,4.62
2019-04-28T13:41:48.283Z,4.37
2019-04-28T13:44:20.066Z,5.05
2019-04-28T13:46:50.595Z,4.95
2019-04-28T13:49:22.531Z,4.75
2019-04-28T13:51:52.855Z,5.17
2019-04-28T13:54:23.589Z,5.65
2019-04-28T13:56:53.914Z,5.85
2019-04-28T13:59:24.440Z,6.03
2019-04-28T14:01:59.270Z,6.12
2019-04-28T14:04:37.172Z,6.55
2019-04-28T14:07:07.497Z,5.87
2019-04-28T14:09:38.587Z,6.10
2019-04-28T14:12:09.167Z,6.17
2019-04-28T14:14:39.695Z,5.78
2019-04-28T14:17:10.223Z,5.97
2019-04-28T14:19:40.548Z,5.95
2019-04-28T14:22:10.872Z,6.37
2019-04-28T14:24:41.202Z,6.12
2019-04-28T14:27:11.536Z,5.67
2019-04-28T14:29:41.842Z,5.53
2019-04-28T14:32:12.279Z,5.45
2019-04-28T14:34:42.699Z,5.53
2019-04-28T14:37:13.018Z,6.17
2019-04-28T14:39:43.579Z,6.08
2019-04-28T14:42:13.870Z,5.83
2019-04-28T14:44:44.247Z,5.58
2019-04-28T14:47:14.723Z,5.53
2019-04-28T14:49:45.043Z,5.87
2019-04-28T14:52:15.372Z,5.90
2019-04-28T14:54:45.773Z,6.70
2019-04-28T14:57:16.659Z,6.22
2019-04-28T14:59:46.751Z,6.15
2019-04-28T15:02:35.357Z,5.55
2019-04-28T15:05:08.903Z,5.72
2019-04-28T15:07:40.753Z,6.37
2019-04-28T15:10:23.090Z,6.15
2019-04-28T15:12:53.412Z,5.90
2019-04-28T15:15:23.511Z,5.75
2019-04-28T15:17:53.833Z,5.62
2019-04-28T15:20:24.772Z,6.45
2019-04-28T15:22:55.095Z,5.62
2019-04-28T15:25:25.514Z,6.78
2019-04-28T15:27:55.948Z,5.65
2019-04-28T15:30:26.067Z,5.85
2019-04-28T15:32:56.390Z,5.40
2019-04-28T15:35:26.509Z,5.75
2019-04-28T15:37:56.832Z,6.78
2019-04-28T15:40:27.354Z,5.30
2019-04-28T15:42:57.686Z,5.22
2019-04-28T15:45:28.214Z,5.67
2019-04-28T15:47:58.538Z,5.75
2019-04-28T15:50:28.871Z,5.37
2019-04-28T15:52:58.799Z,5.70
2019-04-28T15:55:42.456Z,6.10
2019-04-28T15:58:32.099Z,6.45
2019-04-28T16:01:02.236Z,6.33
2019-04-28T16:03:32.183Z,5.12
2019-04-28T16:06:02.669Z,5.78
2019-04-28T16:08:32.571Z,6.22
2019-04-28T16:11:02.484Z,5.42
2019-04-28T16:13:32.355Z,6.10
2019-04-28T16:16:02.290Z,5.95
2019-04-28T16:18:32.170Z,6.67
2019-04-28T16:21:02.010Z,7.05
2019-04-28T16:23:31.915Z,6.83
2019-04-28T16:26:01.819Z,11.48
2019-04-28T16:28:31.749Z,8.40
2019-04-28T16:31:01.777Z,10.58
2019-04-28T16:33:31.686Z,11.33
2019-04-28T16:36:01.838Z,16.85
2019-04-28T16:38:31.723Z,11.00
2019-04-28T16:41:01.847Z,10.23
2019-04-28T16:43:31.912Z,10.43
2019-04-28T16:46:01.886Z,9.70
2019-04-28T16:48:31.788Z,11.03
2019-04-28T16:51:01.823Z,32.40
2019-04-28T16:53:31.796Z,27.02
2019-04-28T16:56:03.420Z,10.95
2019-04-28T16:58:35.037Z,10.08
2019-04-28T17:01:08.161Z,10.32
2019-04-28T17:03:39.183Z,10.78
2019-04-28T17:06:09.229Z,15.32
2019-04-28T17:08:39.081Z,10.60
2019-04-28T17:11:10.682Z,10.72
2019-04-28T17:13:40.593Z,10.88
2019-04-28T17:16:10.878Z,12.07
2019-04-28T17:18:40.818Z,11.12
2019-04-28T17:21:10.724Z,12.23
2019-04-28T17:23:40.720Z,12.47
2019-04-28T17:26:11.369Z,12.75
2019-04-28T17:28:41.379Z,12.00
2019-04-28T17:31:11.865Z,12.10
2019-04-28T17:33:41.752Z,12.18
2019-04-28T17:36:11.722Z,14.10
2019-04-28T17:38:41.581Z,12.23
2019-04-28T17:41:11.593Z,12.25
2019-04-28T17:43:41.649Z,12.23
2019-04-28T17:46:11.657Z,12.60
2019-04-28T17:48:55.080Z,12.40
2019-04-28T17:51:24.993Z,14.05
2019-04-28T17:53:55.071Z,14.07
2019-04-28T17:56:25.492Z,14.65
2019-04-28T17:58:55.432Z,14.35
2019-04-28T18:01:43.337Z,14.28
2019-04-28T18:04:17.529Z,13.75
2019-04-28T18:06:54.720Z,14.23
2019-04-28T18:09:24.977Z,14.05
2019-04-28T18:11:55.108Z,14.47
2019-04-28T18:14:25.162Z,15.43
2019-04-28T18:17:08.738Z,15.72
2019-04-28T18:19:38.755Z,14.98
2019-04-28T18:22:08.766Z,15.43
2019-04-28T18:24:40.138Z,15.38
2019-04-28T18:27:10.178Z,14.25
2019-04-28T18:29:40.189Z,13.90
2019-04-28T18:32:11.779Z,12.92
2019-04-28T18:34:58.330Z,13.93
2019-04-28T18:37:41.508Z,12.25
2019-04-28T18:40:13.037Z,13.13
2019-04-28T18:42:53.271Z,13.10
2019-04-28T18:45:23.225Z,12.65
2019-04-28T18:47:53.114Z,12.35
2019-04-28T18:50:23.202Z,12.90
2019-04-28T18:52:53.015Z,12.00
2019-04-28T18:55:22.968Z,12.25
2019-04-28T18:57:52.891Z,12.85
2019-04-28T19:00:24.404Z,12.63
2019-04-28T19:02:54.334Z,12.35
2019-04-28T19:05:25.812Z,11.97
2019-04-28T19:08:15.221Z,12.80
2019-04-28T19:10:58.626Z,12.23
2019-04-28T19:13:30.211Z,13.55
2019-04-28T19:16:05.651Z,13.43
2019-04-28T19:18:40.684Z,14.20
2019-04-28T19:21:11.009Z,15.65
2019-04-28T19:23:41.234Z,15.05
2019-04-28T19:26:13.191Z,15.85
2019-04-28T19:28:43.418Z,15.13
2019-04-28T19:31:13.736Z,15.65
2019-04-28T19:33:43.855Z,15.75
2019-04-28T19:36:14.410Z,15.58
2019-04-28T19:38:45.116Z,16.27
2019-04-28T19:41:15.859Z,16.85
2019-04-28T19:43:46.378Z,17.23
2019-04-28T19:46:18.546Z,18.73
2019-04-28T19:48:49.074Z,17.65
2019-04-28T19:51:31.147Z,17.05
2019-04-28T19:53:52.377Z,19.32
2019-04-28T19:56:40.415Z,19.12
2019-04-28T19:59:15.355Z,18.75
2019-04-28T20:01:45.683Z,20.05
2019-04-28T20:04:16.002Z,19.27
2019-04-28T20:06:46.018Z,19.48
2019-04-28T20:09:16.863Z,18.70
2019-04-28T20:11:46.990Z,18.52
2019-04-28T20:14:18.526Z,17.87
2019-04-28T20:16:48.850Z,18.57
2019-04-28T20:19:19.584Z,19.40
2019-04-28T20:21:50.522Z,18.98
2019-04-28T20:24:20.847Z,19.67
2019-04-28T20:26:52.196Z,18.95
2019-04-28T20:29:23.326Z,19.17
2019-04-28T20:31:53.892Z,21.00
2019-04-28T20:34:24.393Z,20.75
2019-04-28T20:36:56.366Z,21.20
2019-04-28T20:39:28.527Z,21.93
2019-04-28T20:42:00.289Z,21.10
2019-04-28T20:44:32.037Z,20.88
2019-04-28T20:47:02.568Z,21.30
2019-04-28T20:49:32.890Z,23.47
2019-04-28T20:52:03.174Z,21.15
2019-04-28T20:54:33.946Z,21.77
2019-04-28T20:57:05.094Z,21.95
2019-04-28T20:59:35.618Z,22.25
2019-04-28T21:02:05.941Z,22.37
2019-04-28T21:04:36.474Z,22.75
2019-04-28T21:07:07.000Z,22.42
2019-04-28T21:09:37.323Z,22.13
2019-04-28T21:12:07.452Z,22.00
2019-04-28T21:14:37.765Z,22.82
2019-04-28T21:17:08.294Z,23.67
2019-04-28T21:19:38.822Z,24.12
2019-04-28T21:22:08.944Z,24.23
2019-04-28T21:24:39.265Z,26.35
2019-04-28T21:27:09.384Z,26.93
2019-04-28T21:29:39.708Z,27.22
2019-04-28T21:32:10.031Z,26.23
2019-04-28T21:34:40.560Z,27.98
2019-04-28T21:37:10.884Z,27.55
2019-04-28T21:39:41.207Z,28.40
2019-04-28T21:42:13.580Z,28.05
2019-04-28T21:45:01.106Z,28.12
2019-04-28T21:47:33.069Z,28.32
2019-04-28T21:50:04.007Z,29.12
2019-04-28T21:52:34.330Z,28.92
2019-04-28T21:55:06.502Z,31.37
2019-04-28T21:57:37.230Z,34.98
2019-04-28T22:00:35.998Z,35.23
2019-04-28T22:03:06.346Z,35.52
2019-04-28T22:05:36.670Z,37.08
2019-04-28T22:08:06.993Z,38.67
2019-04-28T22:10:37.319Z,38.65
2019-04-28T22:13:07.644Z,38.60
2019-04-28T22:15:37.966Z,36.75
2019-04-28T22:18:08.587Z,37.28
2019-04-28T22:20:39.021Z,37.42
2019-04-28T22:23:18.254Z,35.40
2019-04-28T22:25:42.741Z,38.00
2019-04-28T22:28:13.068Z,37.73
2019-04-28T22:30:43.388Z,38.37
2019-04-28T22:33:13.712Z,35.87
2019-04-28T22:35:43.831Z,35.83
2019-04-28T22:38:14.360Z,34.93
2019-04-28T22:40:45.085Z,34.97
2019-04-28T22:43:15.415Z,36.65
2019-04-28T22:45:47.174Z,35.33
2019-04-28T22:48:21.531Z,34.43
2019-04-28T22:50:53.352Z,34.10
2019-04-28T22:53:25.314Z,35.27
2019-04-28T22:56:14.274Z,35.10
2019-04-28T22:58:46.237Z,34.47
2019-04-28T23:01:21.068Z,35.00
2019-04-28T23:04:02.039Z,35.37
2019-04-28T23:06:32.364Z,33.97
2019-04-28T23:09:03.095Z,35.03
2019-04-28T23:11:33.421Z,36.27
2019-04-28T23:14:03.949Z,35.93
2019-04-28T23:16:34.682Z,35.43
2019-04-28T23:19:06.849Z,37.30
2019-04-28T23:21:41.474Z,36.50
2019-04-28T23:24:12.208Z,37.97
2019-04-28T23:26:42.737Z,37.03
2019-04-28T23:29:13.061Z,36.90
2019-04-28T23:31:43.383Z,37.37
2019-04-28T23:34:13.707Z,38.37
2019-04-28T23:36:44.036Z,38.40
2019-04-28T23:39:14.353Z,39.77
2019-04-28T23:41:58.400Z,39.33
2019-04-28T23:44:28.723Z,39.73
2019-04-28T23:47:00.686Z,40.67
2019-04-28T23:49:31.322Z,43.20
2019-04-28T23:52:19.561Z,41.80
2019-04-28T23:54:51.525Z,43.13
2019-04-28T23:57:22.051Z,42.13
2019-04-28T23:59:52.374Z,40.97
